sensor_id;sensor_type;location;lat;lon;timestamp;pressure;altitude;pressure_sealevel;temperature;humidity
49945;BME280;35838;49.134;9.212;2023-11-21T00:01:29;99290.97;;;9.22;100.00
49945;BME280;35838;49.134;9.212;2023-11-21T00:03:03;99290.97;;;9.22;100.00
49945;BME280;35838;49.134;9.212;2023-11-21T00:04:34;99295.25;;;9.25;100.00
49945;BME280;35838;49.134;9.212;2023-11-21T00:06:10;99293.53;;;9.24;100.00
49945;BME280;35838;49.134;9.212;2023-11-21T00:07:45;99294.38;;;9.29;100.00
49945;BME280;35838;49.134;9.212;2023-11-21T00:09:16;99290.00;;;9.33;100.00
49945;BME280;35838;49.134;9.212;2023-11-21T00:10:50;99292.59;;;9.34;100.00
49945;BME280;35838;49.134;9.212;2023-11-21T00:12:21;99287.41;;;9.34;100.00
49945;BME280;35838;49.134;9.212;2023-11-21T00:13:55;99289.97;;;9.36;100.00
49945;BME280;35838;49.134;9.212;2023-11-21T00:15:26;99283.97;;;9.31;100.00
49945;BME280;35838;49.134;9.212;2023-11-21T00:17:00;99281.38;;;9.34;100.00
49945;BME280;35838;49.134;9.212;2023-11-21T00:18:31;99283.91;;;9.37;100.00
49945;BME280;35838;49.134;9.212;2023-11-21T00:20:05;99293.44;;;9.35;100.00
49945;BME280;35838;49.134;9.212;2023-11-21T00:21:39;99292.53;;;9.42;100.00
49945;BME280;35838;49.134;9.212;2023-11-21T00:23:14;99283.00;;;9.43;100.00
49945;BME280;35838;49.134;9.212;2023-11-21T00:24:48;99287.28;;;9.45;100.00
49945;BME280;35838;49.134;9.212;2023-11-21T00:26:19;99280.44;;;9.39;100.00
49945;BME280;35838;49.134;9.212;2023-11-21T00:27:54;99281.28;;;9.41;100.00
49945;BME280;35838;49.134;9.212;2023-11-21T00:29:25;99284.81;;;9.34;100.00
49945;BME280;35838;49.134;9.212;2023-11-21T00:30:59;99281.34;;;9.35;100.00
49945;BME280;35838;49.134;9.212;2023-11-21T00:32:30;99283.06;;;9.38;100.00
49945;BME280;35838;49.134;9.212;2023-11-21T00:34:04;99283.94;;;9.38;100.00
49945;BME280;35838;49.134;9.212;2023-11-21T00:35:36;99282.19;;;9.39;100.00
49945;BME280;35838;49.134;9.212;2023-11-21T00:37:12;99283.00;;;9.43;100.00
49945;BME280;35838;49.134;9.212;2023-11-21T00:38:43;99284.75;;;9.40;100.00
49945;BME280;35838;49.134;9.212;2023-11-21T00:40:17;99281.34;;;9.35;100.00
49945;BME280;35838;49.134;9.212;2023-11-21T00:41:50;99276.16;;;9.38;100.00
49945;BME280;35838;49.134;9.212;2023-11-21T00:43:24;99278.69;;;9.41;100.00
49945;BME280;35838;49.134;9.212;2023-11-21T00:44:55;99280.47;;;9.35;100.00
49945;BME280;35838;49.134;9.212;2023-11-21T00:46:29;99278.78;;;9.34;100.00
49945;BME280;35838;49.134;9.212;2023-11-21T00:48:00;99282.22;;;9.37;100.00
49945;BME280;35838;49.134;9.212;2023-11-21T00:49:35;99279.63;;;9.37;100.00
49945;BME280;35838;49.134;9.212;2023-11-21T00:51:06;99273.59;;;9.34;100.00
49945;BME280;35838;49.134;9.212;2023-11-21T00:52:42;99283.06;;;9.38;100.00
49945;BME280;35838;49.134;9.212;2023-11-21T00:54:13;99277.03;;;9.36;100.00
49945;BME280;35838;49.134;9.212;2023-11-21T00:55:47;99279.75;;;9.20;100.00
49945;BME280;35838;49.134;9.212;2023-11-21T00:57:18;99277.94;;;9.30;100.00
49945;BME280;35838;49.134;9.212;2023-11-21T00:58:52;99281.41;;;9.29;100.00
49945;BME280;35838;49.134;9.212;2023-11-21T01:00:24;99278.88;;;9.21;100.00
49945;BME280;35838;49.134;9.212;2023-11-21T01:01:58;99279.72;;;9.22;100.00
49945;BME280;35838;49.134;9.212;2023-11-21T01:03:31;99283.22;;;9.21;100.00
49945;BME280;35838;49.134;9.212;2023-11-21T01:05:05;99281.44;;;9.23;100.00
49945;BME280;35838;49.134;9.212;2023-11-21T01:06:38;99276.28;;;9.23;100.00
49945;BME280;35838;49.134;9.212;2023-11-21T01:08:14;99279.69;;;9.28;100.00
49945;BME280;35838;49.134;9.212;2023-11-21T01:09:45;99280.69;;;9.10;100.00
49945;BME280;35838;49.134;9.212;2023-11-21T01:11:19;99272.88;;;9.18;100.00
49945;BME280;35838;49.134;9.212;2023-11-21T01:12:50;99281.50;;;9.20;100.00
49945;BME280;35838;49.134;9.212;2023-11-21T01:14:24;99284.88;;;9.25;100.00
49945;BME280;35838;49.134;9.212;2023-11-21T01:15:57;99282.31;;;9.22;100.00
49945;BME280;35838;49.134;9.212;2023-11-21T01:17:31;99288.47;;;9.08;100.00
49945;BME280;35838;49.134;9.212;2023-11-21T01:19:02;99283.25;;;9.15;100.00
49945;BME280;35838;49.134;9.212;2023-11-21T01:20:35;99283.22;;;9.18;100.00
49945;BME280;35838;49.134;9.212;2023-11-21T01:22:06;99286.81;;;9.01;100.00
49945;BME280;35838;49.134;9.212;2023-11-21T01:23:45;99285.88;;;9.10;100.00
49945;BME280;35838;49.134;9.212;2023-11-21T01:25:16;99290.16;;;9.13;100.00
49945;BME280;35838;49.134;9.212;2023-11-21T01:26:49;99287.56;;;9.13;100.00
49945;BME280;35838;49.134;9.212;2023-11-21T01:28:20;99290.16;;;9.13;100.00
49945;BME280;35838;49.134;9.212;2023-11-21T01:29:54;99284.94;;;9.17;100.00
49945;BME280;35838;49.134;9.212;2023-11-21T01:31:25;99290.22;;;9.06;100.00
49945;BME280;35838;49.134;9.212;2023-11-21T01:33:00;99283.28;;;9.12;100.00
49945;BME280;35838;49.134;9.212;2023-11-21T01:34:33;99281.56;;;9.11;100.00
49945;BME280;35838;49.134;9.212;2023-11-21T01:36:05;99284.97;;;9.16;100.00
49945;BME280;35838;49.134;9.212;2023-11-21T01:37:38;99291.06;;;9.08;100.00
49945;BME280;35838;49.134;9.212;2023-11-21T01:39:12;99286.00;;;8.94;100.00
49945;BME280;35838;49.134;9.212;2023-11-21T01:40:47;99289.41;;;9.00;100.00
49945;BME280;35838;49.134;9.212;2023-11-21T01:42:18;99287.72;;;8.92;100.00
49945;BME280;35838;49.134;9.212;2023-11-21T01:43:52;99286.78;;;9.04;100.00
49945;BME280;35838;49.134;9.212;2023-11-21T01:45:24;99284.22;;;9.01;100.00
49945;BME280;35838;49.134;9.212;2023-11-21T01:47:00;99286.00;;;8.91;100.00
49945;BME280;35838;49.134;9.212;2023-11-21T01:48:35;99292.00;;;9.01;100.00
49945;BME280;35838;49.134;9.212;2023-11-21T01:50:09;99287.63;;;9.06;100.00
49945;BME280;35838;49.134;9.212;2023-11-21T01:51:43;99287.56;;;9.14;100.00
49945;BME280;35838;49.134;9.212;2023-11-21T01:53:19;99282.34;;;9.17;100.00
49945;BME280;35838;49.134;9.212;2023-11-21T01:54:53;99283.25;;;9.15;100.00
49945;BME280;35838;49.134;9.212;2023-11-21T01:56:27;99281.56;;;9.11;100.00
49945;BME280;35838;49.134;9.212;2023-11-21T01:57:58;99284.16;;;9.09;100.00
49945;BME280;35838;49.134;9.212;2023-11-21T01:59:33;99283.31;;;9.08;100.00
49945;BME280;35838;49.134;9.212;2023-11-21T02:01:05;99285.06;;;9.02;100.00
49945;BME280;35838;49.134;9.212;2023-11-21T02:02:40;99291.94;;;9.07;100.00
49945;BME280;35838;49.134;9.212;2023-11-21T02:04:12;99279.81;;;9.13;100.00
49945;BME280;35838;49.134;9.212;2023-11-21T02:05:46;99278.94;;;9.15;100.00
49945;BME280;35838;49.134;9.212;2023-11-21T02:07:17;99271.16;;;9.17;100.00
49945;BME280;35838;49.134;9.212;2023-11-21T02:08:54;99280.66;;;9.15;100.00
49945;BME280;35838;49.134;9.212;2023-11-21T02:10:27;99281.47;;;9.21;100.00
49945;BME280;35838;49.134;9.212;2023-11-21T02:12:01;99278.00;;;9.25;100.00
49945;BME280;35838;49.134;9.212;2023-11-21T02:13:33;99278.00;;;9.24;100.00
49945;BME280;35838;49.134;9.212;2023-11-21T02:15:07;99281.44;;;9.26;100.00
49945;BME280;35838;49.134;9.212;2023-11-21T02:16:45;99278.06;;;9.15;100.00
49945;BME280;35838;49.134;9.212;2023-11-21T02:18:20;99273.78;;;9.09;100.00
49945;BME280;35838;49.134;9.212;2023-11-21T02:19:52;99281.50;;;9.17;100.00
49945;BME280;35838;49.134;9.212;2023-11-21T02:21:26;99273.69;;;9.24;100.00
49945;BME280;35838;49.134;9.212;2023-11-21T02:23:00;99283.16;;;9.24;100.00
49945;BME280;35838;49.134;9.212;2023-11-21T02:24:35;99277.13;;;9.25;100.00
49945;BME280;35838;49.134;9.212;2023-11-21T02:26:07;99276.28;;;9.23;100.00
49945;BME280;35838;49.134;9.212;2023-11-21T02:27:41;99278.00;;;9.24;100.00
49945;BME280;35838;49.134;9.212;2023-11-21T02:29:12;99276.25;;;9.26;100.00
49945;BME280;35838;49.134;9.212;2023-11-21T02:30:48;99277.09;;;9.28;100.00
49945;BME280;35838;49.134;9.212;2023-11-21T02:32:26;99277.97;;;9.27;100.00
49945;BME280;35838;49.134;9.212;2023-11-21T02:34:02;99281.41;;;9.29;100.00
49945;BME280;35838;49.134;9.212;2023-11-21T02:35:33;99277.09;;;9.30;100.00
49945;BME280;35838;49.134;9.212;2023-11-21T02:37:08;99285.03;;;9.09;100.00
49945;BME280;35838;49.134;9.212;2023-11-21T02:38:42;99279.72;;;9.22;100.00
49945;BME280;35838;49.134;9.212;2023-11-21T02:40:16;99278.03;;;9.21;100.00
49945;BME280;35838;49.134;9.212;2023-11-21T02:41:48;99283.22;;;9.21;100.00
49945;BME280;35838;49.134;9.212;2023-11-21T02:43:22;99280.63;;;9.19;100.00
49945;BME280;35838;49.134;9.212;2023-11-21T02:44:53;99282.34;;;9.20;100.00
49945;BME280;35838;49.134;9.212;2023-11-21T02:46:27;99283.16;;;9.24;100.00
49945;BME280;35838;49.134;9.212;2023-11-21T14:51:25;99711.81;;;12.70;100.00
49945;BME280;35838;49.134;9.212;2023-11-21T14:53:01;99718.28;;;12.46;100.00
49945;BME280;35838;49.134;9.212;2023-11-21T14:54:33;99723.63;;;12.35;100.00
49945;BME280;35838;49.134;9.212;2023-11-21T14:56:10;99729.00;;;12.23;100.00
49945;BME280;35838;49.134;9.212;2023-11-21T14:57:52;99727.66;;;11.89;100.00
49945;BME280;35838;49.134;9.212;2023-11-21T14:59:24;99736.41;;;11.85;100.00
49945;BME280;35838;49.134;9.212;2023-11-21T15:00:55;99730.44;;;11.72;100.00
49945;BME280;35838;49.134;9.212;2023-11-21T15:02:32;99730.84;;;11.37;100.00
49945;BME280;35838;49.134;9.212;2023-11-21T15:04:18;99740.44;;;11.30;100.00
49945;BME280;35838;49.134;9.212;2023-11-21T15:06:06;99748.31;;;11.22;100.00
49945;BME280;35838;49.134;9.212;2023-11-21T15:07:52;99750.06;;;11.20;100.00
49945;BME280;35838;49.134;9.212;2023-11-21T15:09:26;99750.25;;;10.97;100.00
49945;BME280;35838;49.134;9.212;2023-11-21T15:11:11;99750.22;;;10.98;100.00
49945;BME280;35838;49.134;9.212;2023-11-21T15:12:46;99751.16;;;10.94;100.00
49945;BME280;35838;49.134;9.212;2023-11-21T15:14:20;99752.88;;;10.95;100.00
49945;BME280;35838;49.134;9.212;2023-11-21T15:15:55;99748.56;;;10.91;100.00
49945;BME280;35838;49.134;9.212;2023-11-21T15:17:38;99752.03;;;10.90;100.00
49945;BME280;35838;49.134;9.212;2023-11-21T15:19:10;99752.88;;;10.92;100.00
49945;BME280;35838;49.134;9.212;2023-11-21T15:20:48;99760.72;;;10.86;100.00
49945;BME280;35838;49.134;9.212;2023-11-21T15:22:22;99760.72;;;10.85;100.00
49945;BME280;35838;49.134;9.212;2023-11-21T15:24:00;99767.69;;;10.81;100.00
49945;BME280;35838;49.134;9.212;2023-11-21T15:25:31;99774.66;;;10.73;100.00
49945;BME280;35838;49.134;9.212;2023-11-21T15:27:05;99778.13;;;10.73;100.00
49945;BME280;35838;49.134;9.212;2023-11-21T15:28:38;99774.75;;;10.60;100.00
49945;BME280;35838;49.134;9.212;2023-11-21T15:30:11;99776.53;;;10.54;100.00
49945;BME280;35838;49.134;9.212;2023-11-21T15:31:42;99785.19;;;10.48;100.00
49945;BME280;35838;49.134;9.212;2023-11-21T15:33:19;99785.19;;;10.45;100.00
49945;BME280;35838;49.134;9.212;2023-11-21T15:34:52;99790.44;;;10.42;100.00
49945;BME280;35838;49.134;9.212;2023-11-21T15:36:24;99787.81;;;10.43;100.00
49945;BME280;35838;49.134;9.212;2023-11-21T15:37:58;99790.44;;;10.39;100.00
49945;BME280;35838;49.134;9.212;2023-11-21T15:39:35;99786.13;;;10.34;100.00
49945;BME280;35838;49.134;9.212;2023-11-21T15:41:09;99792.16;;;10.33;100.00
49945;BME280;35838;49.134;9.212;2023-11-21T15:42:42;99799.97;;;10.26;100.00
49945;BME280;35838;49.134;9.212;2023-11-21T15:44:15;99797.41;;;10.24;100.00
49945;BME280;35838;49.134;9.212;2023-11-21T15:45:47;99798.28;;;10.22;100.00
49945;BME280;35838;49.134;9.212;2023-11-21T15:47:20;99813.84;;;10.18;100.00
49945;BME280;35838;49.134;9.212;2023-11-21T15:48:51;99810.41;;;10.15;100.00
49945;BME280;35838;49.134;9.212;2023-11-21T15:50:25;99810.41;;;10.10;100.00
49945;BME280;35838;49.134;9.212;2023-11-21T15:51:56;99811.25;;;10.11;100.00
49945;BME280;35838;49.134;9.212;2023-11-21T15:53:30;99807.84;;;10.06;100.00
49945;BME280;35838;49.134;9.212;2023-11-21T15:55:05;99822.53;;;10.07;100.00
49945;BME280;35838;49.134;9.212;2023-11-21T15:56:39;99815.59;;;10.07;100.00
49945;BME280;35838;49.134;9.212;2023-11-21T15:58:10;99816.47;;;10.08;100.00
49945;BME280;35838;49.134;9.212;2023-11-21T15:59:44;99826.84;;;10.04;100.00
49945;BME280;35838;49.134;9.212;2023-11-21T16:01:16;99819.09;;;10.03;100.00
49945;BME280;35838;49.134;9.212;2023-11-21T16:02:50;99833.78;;;10.01;100.00
49945;BME280;35838;49.134;9.212;2023-11-21T16:04:21;99824.28;;;9.98;100.00
49945;BME280;35838;49.134;9.212;2023-11-21T16:05:57;99836.38;;;9.98;100.00
49945;BME280;35838;49.134;9.212;2023-11-21T16:07:30;99831.19;;;9.93;100.00
49945;BME280;35838;49.134;9.212;2023-11-21T16:09:02;99838.13;;;9.93;100.00
49945;BME280;35838;49.134;9.212;2023-11-21T16:10:39;99832.06;;;9.94;100.00
49945;BME280;35838;49.134;9.212;2023-11-21T16:12:10;99832.06;;;9.92;100.00
49945;BME280;35838;49.134;9.212;2023-11-21T16:13:44;99832.97;;;9.91;100.00
49945;BME280;35838;49.134;9.212;2023-11-21T16:15:19;99835.53;;;9.91;100.00
49945;BME280;35838;49.134;9.212;2023-11-21T16:16:51;99837.25;;;9.92;100.00
49945;BME280;35838;49.134;9.212;2023-11-21T16:18:24;99836.38;;;9.93;100.00
49945;BME280;35838;49.134;9.212;2023-11-21T16:19:55;99842.44;;;9.94;100.00
49945;BME280;35838;49.134;9.212;2023-11-21T16:21:30;99844.16;;;9.93;100.00
49945;BME280;35838;49.134;9.212;2023-11-21T16:23:04;99851.13;;;9.69;100.00
49945;BME280;35838;49.134;9.212;2023-11-21T16:24:35;99853.75;;;9.59;100.00
49945;BME280;35838;49.134;9.212;2023-11-21T16:26:12;99844.22;;;9.59;100.00
49945;BME280;35838;49.134;9.212;2023-11-21T16:27:43;99846.78;;;9.65;100.00
49945;BME280;35838;49.134;9.212;2023-11-21T16:29:16;99845.09;;;9.70;100.00
49945;BME280;35838;49.134;9.212;2023-11-21T16:30:47;99848.53;;;9.82;100.00
49945;BME280;35838;49.134;9.212;2023-11-21T16:32:21;99854.56;;;9.75;100.00
49945;BME280;35838;49.134;9.212;2023-11-21T16:33:52;99856.28;;;9.76;100.00
49945;BME280;35838;49.134;9.212;2023-11-21T16:35:26;99859.75;;;9.81;100.00
49945;BME280;35838;49.134;9.212;2023-11-21T16:36:57;99860.63;;;9.80;100.00
49945;BME280;35838;49.134;9.212;2023-11-21T16:38:30;99866.66;;;9.79;100.00
49945;BME280;35838;49.134;9.212;2023-11-21T16:40:04;99860.63;;;9.80;100.00
49945;BME280;35838;49.134;9.212;2023-11-21T16:41:40;99866.66;;;9.82;100.00
49945;BME280;35838;49.134;9.212;2023-11-21T16:43:14;99871.00;;;9.78;100.00
49945;BME280;35838;49.134;9.212;2023-11-21T16:44:46;99876.16;;;9.84;100.00
49945;BME280;35838;49.134;9.212;2023-11-21T16:46:23;99877.91;;;9.85;100.00
49945;BME280;35838;49.134;9.212;2023-11-21T16:47:54;99883.06;;;9.87;100.00
49945;BME280;35838;49.134;9.212;2023-11-21T16:49:28;99885.66;;;9.87;100.00
49945;BME280;35838;49.134;9.212;2023-11-21T16:51:00;99886.50;;;9.91;100.00
49945;BME280;35838;49.134;9.212;2023-11-21T16:52:33;99885.66;;;9.90;100.00
49945;BME280;35838;49.134;9.212;2023-11-21T16:54:05;99895.16;;;9.90;100.00
49945;BME280;35838;49.134;9.212;2023-11-21T16:55:39;99892.56;;;9.88;100.00
49945;BME280;35838;49.134;9.212;2023-11-21T16:57:12;99892.56;;;9.88;100.00
49945;BME280;35838;49.134;9.212;2023-11-21T16:58:46;99898.63;;;9.87;100.00
49945;BME280;35838;49.134;9.212;2023-11-21T17:00:17;99907.25;;;9.83;100.00
49945;BME280;35838;49.134;9.212;2023-11-21T17:01:53;99901.22;;;9.82;100.00
49945;BME280;35838;49.134;9.212;2023-11-21T17:03:24;99899.50;;;9.77;100.00
49945;BME280;35838;49.134;9.212;2023-11-21T17:04:57;99905.53;;;9.79;100.00
49945;BME280;35838;49.134;9.212;2023-11-21T17:06:29;99911.59;;;9.81;100.00
49945;BME280;35838;49.134;9.212;2023-11-21T17:08:03;99913.31;;;9.86;100.00
49945;BME280;35838;49.134;9.212;2023-11-21T17:09:41;99912.44;;;9.91;100.00
49945;BME280;35838;49.134;9.212;2023-11-21T17:11:12;99920.22;;;9.86;100.00
49945;BME280;35838;49.134;9.212;2023-11-21T17:12:48;99921.97;;;9.85;100.00
49945;BME280;35838;49.134;9.212;2023-11-21T17:14:20;99922.81;;;9.84;100.00
49945;BME280;35838;49.134;9.212;2023-11-21T17:15:54;99925.41;;;9.81;100.00
49945;BME280;35838;49.134;9.212;2023-11-21T17:17:25;99921.09;;;9.79;100.00
49945;BME280;35838;49.134;9.212;2023-11-21T17:18:58;99928.88;;;9.82;100.00
49945;BME280;35838;49.134;9.212;2023-11-21T17:20:29;99931.47;;;9.82;100.00
49945;BME280;35838;49.134;9.212;2023-11-21T17:22:03;99940.09;;;9.82;100.00
49945;BME280;35838;49.134;9.212;2023-11-21T17:23:35;99940.97;;;9.86;100.00
49945;BME280;35838;49.134;9.212;2023-11-21T17:25:09;99936.63;;;9.76;100.00
49945;BME280;35838;49.134;9.212;2023-11-21T17:26:40;99934.06;;;9.68;100.00
49945;BME280;35838;49.134;9.212;2023-11-21T17:28:16;99932.31;;;9.65;100.00
49945;BME280;35838;49.134;9.212;2023-11-21T17:29:50;99930.59;;;9.70;100.00
49945;BME280;35838;49.134;9.212;2023-11-21T17:31:21;99927.13;;;9.65;100.00
49945;BME280;35838;49.134;9.212;2023-11-21T17:32:56;99937.50;;;9.68;100.00
49945;BME280;35838;49.134;9.212;2023-11-21T17:34:30;99940.97;;;9.66;100.00
49945;BME280;35838;49.134;9.212;2023-11-21T17:36:01;99942.69;;;9.64;100.00
49945;BME280;35838;49.134;9.212;2023-11-21T17:37:34;99936.66;;;9.68;100.00
49945;BME280;35838;49.134;9.212;2023-11-21T17:39:07;99946.16;;;9.66;100.00
49945;BME280;35838;49.134;9.212;2023-11-21T17:40:41;99946.16;;;9.66;100.00
49945;BME280;35838;49.134;9.212;2023-11-21T17:42:15;99951.34;;;9.74;100.00
49945;BME280;35838;49.134;9.212;2023-11-21T17:43:49;99953.06;;;9.75;100.00
49945;BME280;35838;49.134;9.212;2023-11-21T17:45:23;99958.25;;;9.81;100.00
49945;BME280;35838;49.134;9.212;2023-11-21T17:46:55;99954.78;;;9.66;100.00
49945;BME280;35838;49.134;9.212;2023-11-21T17:48:29;99957.38;;;9.63;100.00
49945;BME280;35838;49.134;9.212;2023-11-21T17:50:01;99959.97;;;9.54;100.00
49945;BME280;35838;49.134;9.212;2023-11-21T17:51:38;99956.50;;;9.49;100.00
49945;BME280;35838;49.134;9.212;2023-11-21T17:53:10;99956.50;;;9.47;100.00
49945;BME280;35838;49.134;9.212;2023-11-21T17:54:43;99953.91;;;9.43;100.00
49945;BME280;35838;49.134;9.212;2023-11-21T17:56:15;99959.97;;;9.45;100.00
49945;BME280;35838;49.134;9.212;2023-11-21T17:57:49;99962.53;;;9.46;100.00
49945;BME280;35838;49.134;9.212;2023-11-21T17:59:24;99960.81;;;9.48;100.00
49945;BME280;35838;49.134;9.212;2023-11-21T18:00:57;99959.97;;;9.45;100.00
49945;BME280;35838;49.134;9.212;2023-11-21T18:02:28;99962.53;;;9.48;100.00
49945;BME280;35838;49.134;9.212;2023-11-21T18:04:03;99968.59;;;9.54;100.00
49945;BME280;35838;49.134;9.212;2023-11-21T18:05:37;99974.66;;;9.55;100.00
49945;BME280;35838;49.134;9.212;2023-11-21T18:07:08;99967.72;;;9.55;100.00
49945;BME280;35838;49.134;9.212;2023-11-21T18:08:43;99974.63;;;9.53;100.00
49945;BME280;35838;49.134;9.212;2023-11-21T18:10:14;99973.78;;;9.53;100.00
49945;BME280;35838;49.134;9.212;2023-11-21T18:11:48;99969.47;;;9.58;100.00
49945;BME280;35838;49.134;9.212;2023-11-21T18:13:19;99974.63;;;9.58;100.00
49945;BME280;35838;49.134;9.212;2023-11-21T18:14:55;99982.41;;;9.56;100.00
49945;BME280;35838;49.134;9.212;2023-11-21T18:16:29;99984.16;;;9.59;100.00
49945;BME280;35838;49.134;9.212;2023-11-21T18:18:00;99982.44;;;9.55;100.00
49945;BME280;35838;49.134;9.212;2023-11-21T18:19:34;99980.69;;;9.60;100.00
49945;BME280;35838;49.134;9.212;2023-11-21T18:21:06;99985.03;;;9.67;100.00
49945;BME280;35838;49.134;9.212;2023-11-21T18:22:40;99984.16;;;9.65;100.00
49945;BME280;35838;49.134;9.212;2023-11-21T18:24:13;99984.16;;;9.65;100.00
49945;BME280;35838;49.134;9.212;2023-11-21T18:25:44;99989.34;;;9.71;100.00
49945;BME280;35838;49.134;9.212;2023-11-21T18:27:18;99982.44;;;9.74;100.00
49945;BME280;35838;49.134;9.212;2023-11-21T18:28:58;99988.47;;;9.69;100.00
49945;BME280;35838;49.134;9.212;2023-11-21T18:30:31;99987.63;;;9.60;100.00
49945;BME280;35838;49.134;9.212;2023-11-21T18:32:05;99986.75;;;9.59;100.00
49945;BME280;35838;49.134;9.212;2023-11-21T18:33:40;99994.50;;;9.65;100.00
49945;BME280;35838;49.134;9.212;2023-11-21T18:35:12;99999.69;;;9.65;100.00
49945;BME280;35838;49.134;9.212;2023-11-21T18:36:45;99998.84;;;9.71;100.00
49945;BME280;35838;49.134;9.212;2023-11-21T18:38:16;99999.69;;;9.64;100.00
49945;BME280;35838;49.134;9.212;2023-11-21T18:39:50;100004.91;;;9.62;100.00
49945;BME280;35838;49.134;9.212;2023-11-21T18:41:21;99997.09;;;9.51;100.00
49945;BME280;35838;49.134;9.212;2023-11-21T18:42:55;100004.88;;;9.47;100.00
49945;BME280;35838;49.134;9.212;2023-11-21T18:44:26;100011.75;;;9.41;100.00
49945;BME280;35838;49.134;9.212;2023-11-21T18:46:03;100015.22;;;9.37;100.00
49945;BME280;35838;49.134;9.212;2023-11-21T18:47:34;100008.28;;;9.39;100.00
49945;BME280;35838;49.134;9.212;2023-11-21T18:49:08;100015.19;;;9.33;100.00
49945;BME280;35838;49.134;9.212;2023-11-21T18:50:39;100021.25;;;9.41;100.00
49945;BME280;35838;49.134;9.212;2023-11-21T18:52:13;100023.88;;;9.46;100.00
49945;BME280;35838;49.134;9.212;2023-11-21T18:53:44;100017.84;;;9.51;100.00
49945;BME280;35838;49.134;9.212;2023-11-21T18:55:17;100021.28;;;9.52;100.00
49945;BME280;35838;49.134;9.212;2023-11-21T18:56:48;100026.47;;;9.55;100.00
49945;BME280;35838;49.134;9.212;2023-11-21T18:58:22;100034.25;;;9.56;100.00
49945;BME280;35838;49.134;9.212;2023-11-21T18:59:53;100036.81;;;9.58;100.00
49945;BME280;35838;49.134;9.212;2023-11-21T19:01:29;100037.69;;;9.57;100.00
49945;BME280;35838;49.134;9.212;2023-11-21T19:03:03;100047.16;;;9.49;100.00
49945;BME280;35838;49.134;9.212;2023-11-21T19:04:34;100046.38;;;9.61;100.00
49945;BME280;35838;49.134;9.212;2023-11-21T19:06:08;100051.53;;;9.59;100.00
49945;BME280;35838;49.134;9.212;2023-11-21T19:07:39;100048.94;;;9.62;100.00
49945;BME280;35838;49.134;9.212;2023-11-21T19:09:13;100051.53;;;9.56;100.00
49945;BME280;35838;49.134;9.212;2023-11-21T19:10:44;100053.28;;;9.63;100.00
49945;BME280;35838;49.134;9.212;2023-11-21T19:12:18;100060.19;;;9.64;100.00
49945;BME280;35838;49.134;9.212;2023-11-21T19:13:49;100060.16;;;9.63;100.00
49945;BME280;35838;49.134;9.212;2023-11-21T19:15:23;100064.47;;;9.53;100.00
49945;BME280;35838;49.134;9.212;2023-11-21T19:16:58;100064.47;;;9.54;100.00
49945;BME280;35838;49.134;9.212;2023-11-21T19:18:32;100063.59;;;9.43;100.00
49945;BME280;35838;49.134;9.212;2023-11-21T19:20:03;100058.41;;;9.49;100.00
49945;BME280;35838;49.134;9.212;2023-11-21T19:21:38;100061.00;;;9.55;100.00
49945;BME280;35838;49.134;9.212;2023-11-21T19:23:10;100066.19;;;9.52;100.00
49945;BME280;35838;49.134;9.212;2023-11-21T19:24:43;100066.19;;;9.52;100.00
49945;BME280;35838;49.134;9.212;2023-11-21T19:26:14;100076.53;;;9.52;100.00
49945;BME280;35838;49.134;9.212;2023-11-21T19:27:48;100067.09;;;9.62;100.00
49945;BME280;35838;49.134;9.212;2023-11-21T19:29:21;100070.53;;;9.61;100.00
49945;BME280;35838;49.134;9.212;2023-11-21T19:30:55;100069.66;;;9.59;100.00
49945;BME280;35838;49.134;9.212;2023-11-21T19:32:29;100069.66;;;9.54;100.00
49945;BME280;35838;49.134;9.212;2023-11-21T19:34:03;100071.38;;;9.57;100.00
49945;BME280;35838;49.134;9.212;2023-11-21T19:35:35;100073.97;;;9.57;100.00
49945;BME280;35838;49.134;9.212;2023-11-21T19:37:09;100079.16;;;9.54;100.00
49945;BME280;35838;49.134;9.212;2023-11-21T19:38:40;100079.16;;;9.54;100.00
49945;BME280;35838;49.134;9.212;2023-11-21T19:40:14;100076.53;;;9.48;100.00
49945;BME280;35838;49.134;9.212;2023-11-21T19:41:53;100078.28;;;9.46;100.00
49945;BME280;35838;49.134;9.212;2023-11-21T19:43:26;100078.25;;;9.47;100.00
49945;BME280;35838;49.134;9.212;2023-11-21T19:44:57;100078.25;;;9.44;100.00
49945;BME280;35838;49.134;9.212;2023-11-21T19:46:31;100074.75;;;9.36;100.00
49945;BME280;35838;49.134;9.212;2023-11-21T19:48:05;100078.28;;;9.50;100.00
49945;BME280;35838;49.134;9.212;2023-11-21T19:49:39;100079.13;;;9.48;100.00
49945;BME280;35838;49.134;9.212;2023-11-21T19:51:10;100082.56;;;9.40;100.00
49945;BME280;35838;49.134;9.212;2023-11-21T19:52:44;100082.56;;;9.44;100.00
49945;BME280;35838;49.134;9.212;2023-11-21T19:54:15;100080.84;;;9.43;100.00
49945;BME280;35838;49.134;9.212;2023-11-21T19:55:48;100082.56;;;9.40;100.00
49945;BME280;35838;49.134;9.212;2023-11-21T19:57:20;100088.59;;;9.32;100.00
49945;BME280;35838;49.134;9.212;2023-11-21T19:58:54;100092.03;;;9.37;100.00
49945;BME280;35838;49.134;9.212;2023-11-21T20:00:25;100091.16;;;9.35;100.00
49945;BME280;35838;49.134;9.212;2023-11-21T20:01:59;100099.78;;;9.32;100.00
49945;BME280;35838;49.134;9.212;2023-11-21T20:03:33;100097.19;;;9.32;100.00
49945;BME280;35838;49.134;9.212;2023-11-21T20:05:07;100092.91;;;9.34;100.00
49945;BME280;35838;49.134;9.212;2023-11-21T20:06:39;100096.38;;;9.39;100.00
49945;BME280;35838;49.134;9.212;2023-11-21T20:08:13;100092.94;;;9.42;100.00
49945;BME280;35838;49.134;9.212;2023-11-21T20:09:47;100100.72;;;9.48;100.00
49945;BME280;35838;49.134;9.212;2023-11-21T20:11:23;100100.69;;;9.45;100.00
49945;BME280;35838;49.134;9.212;2023-11-21T20:12:54;100105.91;;;9.42;100.00
49945;BME280;35838;49.134;9.212;2023-11-21T20:14:29;100113.66;;;9.44;100.00
49945;BME280;35838;49.134;9.212;2023-11-21T20:16:01;100111.06;;;9.44;100.00
49945;BME280;35838;49.134;9.212;2023-11-21T20:17:35;100113.66;;;9.44;100.00